createdAt,value
2023-02-24T00:02:04.823Z,101430.38
2023-02-24T00:04:35.609Z,101426.66
2023-02-24T00:07:04.105Z,101418.59
2023-02-24T00:09:33.618Z,101419.34
2023-02-24T00:12:09.044Z,101414.06
2023-02-24T00:14:38.715Z,101411.22
2023-02-24T00:17:09.935Z,101406.53
2023-02-24T00:19:38.094Z,101409.75
2023-02-24T00:22:07.818Z,101399.06
2023-02-24T00:24:36.124Z,101392.72
2023-02-24T00:27:11.449Z,101385.47
2023-02-24T00:29:40.450Z,101383.47
2023-02-24T00:32:13.264Z,101377.25
2023-02-24T00:34:41.582Z,101364.16
2023-02-24T00:37:09.226Z,101364.09
2023-02-24T00:39:41.653Z,101369.38
2023-02-24T00:42:12.011Z,101345.06
2023-02-24T00:44:43.875Z,101341.59
2023-02-24T00:47:12.195Z,101347.66
2023-02-24T00:49:42.925Z,101341.44
2023-02-24T00:52:17.261Z,101326.53
2023-02-24T00:54:46.412Z,101329.06
2023-02-24T00:57:14.999Z,101322.00
2023-02-24T00:59:47.583Z,101318.47
2023-02-24T01:02:15.824Z,101313.09
2023-02-24T01:04:45.016Z,101316.41
2023-02-24T01:07:14.226Z,101314.63
2023-02-24T01:09:42.023Z,101316.25
2023-02-24T01:12:30.683Z,101313.66
2023-02-24T01:14:58.221Z,101308.53
2023-02-24T01:17:25.649Z,101293.88
2023-02-24T01:19:53.250Z,101290.47
2023-02-24T01:22:23.853Z,101273.28
2023-02-24T01:24:51.240Z,101280.25
2023-02-24T01:27:19.666Z,101273.31
2023-02-24T01:29:48.443Z,101262.88
2023-02-24T01:32:19.561Z,101261.06
2023-02-24T01:34:47.727Z,101262.66
2023-02-24T01:37:16.701Z,101258.00
2023-02-24T01:39:45.480Z,101251.66
2023-02-24T01:42:19.767Z,101243.63
2023-02-24T01:44:47.805Z,101238.34
2023-02-24T01:47:29.254Z,101250.31
2023-02-24T01:49:57.880Z,101240.63
2023-02-24T01:52:30.579Z,101234.47
2023-02-24T01:55:13.432Z,101230.00
2023-02-24T01:57:42.639Z,101230.91
2023-02-24T02:00:31.660Z,101223.91
2023-02-24T02:03:06.112Z,101214.31
2023-02-24T02:05:33.913Z,101211.78
2023-02-24T02:08:01.985Z,101218.72
2023-02-24T02:10:29.800Z,101213.50
2023-02-24T02:12:57.456Z,101210.03
2023-02-24T02:15:29.072Z,101199.72
2023-02-24T02:17:59.397Z,101196.34
2023-02-24T02:20:57.538Z,101195.56
2023-02-24T02:24:13.323Z,101188.72
2023-02-24T02:27:21.091Z,101179.34
2023-02-24T02:30:24.004Z,101173.41
2023-02-24T02:33:07.485Z,101160.56
2023-02-24T02:35:42.832Z,101162.38
2023-02-24T02:38:26.422Z,101164.34
2023-02-24T02:41:15.405Z,101155.81
2023-02-24T02:44:03.144Z,101144.69
2023-02-24T02:47:13.828Z,101149.13
2023-02-24T02:50:12.277Z,101136.19
2023-02-24T02:52:58.509Z,101138.84
2023-02-24T02:55:59.555Z,101128.59
2023-02-24T02:58:34.761Z,101126.94
2023-02-24T03:01:07.341Z,101128.75
2023-02-24T03:03:41.247Z,101108.75
2023-02-24T03:06:17.880Z,101118.34
2023-02-24T03:09:12.450Z,101109.69
2023-02-24T03:11:42.031Z,101113.28
2023-02-24T03:14:14.580Z,101109.91
2023-02-24T03:16:46.205Z,101103.81
2023-02-24T03:19:17.675Z,101097.69
2023-02-24T03:21:50.110Z,101092.50
2023-02-24T03:24:17.735Z,101083.00
2023-02-24T03:27:02.200Z,101080.38
2023-02-24T03:29:55.294Z,101079.53
2023-02-24T03:32:43.869Z,101080.41
2023-02-24T03:35:17.592Z,101068.31
2023-02-24T03:37:47.462Z,101064.06
2023-02-24T03:40:17.015Z,101060.66
2023-02-24T03:42:49.670Z,101058.94
2023-02-24T03:45:18.396Z,101046.84
2023-02-24T03:47:46.734Z,101045.13
2023-02-24T03:50:20.084Z,101046.06
2023-02-24T03:52:52.710Z,101037.44
2023-02-24T03:55:58.896Z,101035.72
2023-02-24T03:59:05.051Z,101029.66
2023-02-24T04:01:55.792Z,101024.53
2023-02-24T04:04:35.518Z,101021.16
2023-02-24T04:07:35.847Z,101002.94
2023-02-24T04:10:36.280Z,101003.81
2023-02-24T04:13:35.336Z,100992.56
2023-02-24T04:16:29.940Z,100990.94
2023-02-24T04:19:03.954Z,100985.81
2023-02-24T04:21:37.354Z,100973.75
2023-02-24T04:24:11.547Z,100968.59
2023-02-24T04:26:40.701Z,100966.94
2023-02-24T04:29:17.521Z,100951.38
2023-02-24T04:31:48.352Z,100940.94
2023-02-24T04:34:20.382Z,100934.91
2023-02-24T04:36:50.000Z,100938.47
2023-02-24T04:39:21.344Z,100937.56
2023-02-24T04:41:52.773Z,100915.84
2023-02-24T04:44:21.948Z,100918.50
2023-02-24T04:46:51.383Z,100915.97
2023-02-24T04:49:20.466Z,100902.09
2023-02-24T04:51:48.042Z,100904.69
2023-02-24T04:54:17.663Z,100890.88
2023-02-24T04:56:47.982Z,100889.97
2023-02-24T04:59:18.301Z,100883.94
2023-02-24T05:01:46.222Z,100866.66
2023-02-24T05:04:14.476Z,100863.97
2023-02-24T05:06:44.234Z,100862.28
2023-02-24T05:09:19.054Z,100852.69
2023-02-24T05:11:51.577Z,100850.03
2023-02-24T05:14:25.001Z,100848.31
2023-02-24T05:16:52.954Z,100844.00
2023-02-24T05:19:39.075Z,100824.00
2023-02-24T05:22:11.601Z,100826.59
2023-02-24T05:24:38.919Z,100817.06
2023-02-24T05:27:06.195Z,100810.16
2023-02-24T05:29:35.574Z,100804.94
2023-02-24T05:32:04.702Z,100797.06
2023-02-24T05:34:33.653Z,100791.88
2023-02-24T05:37:04.509Z,100791.88
2023-02-24T05:39:31.774Z,100773.69
2023-02-24T05:42:05.356Z,100774.53
2023-02-24T05:44:33.043Z,100764.06
2023-02-24T05:47:00.757Z,100761.44
2023-02-24T05:49:33.916Z,100750.09
2023-02-24T05:52:10.139Z,100748.34
2023-02-24T05:54:42.662Z,100738.81
2023-02-24T05:57:13.561Z,100735.28
2023-02-24T05:59:41.718Z,100737.94
2023-02-24T06:02:13.127Z,100724.00
2023-02-24T06:04:53.980Z,100719.66
2023-02-24T06:07:27.865Z,100724.00
2023-02-24T06:09:58.092Z,100713.56
2023-02-24T06:12:28.741Z,100717.88
2023-02-24T06:14:58.255Z,100715.28
2023-02-24T06:17:26.533Z,100709.19
2023-02-24T06:19:54.322Z,100707.47
2023-02-24T06:22:23.670Z,100707.47
2023-02-24T06:24:51.010Z,100697.97
2023-02-24T06:27:19.618Z,100689.28
2023-02-24T06:29:52.385Z,100691.94
2023-02-24T06:32:23.971Z,100690.22
2023-02-24T06:34:52.311Z,100688.53
2023-02-24T06:37:20.397Z,100678.13
2023-02-24T06:39:48.020Z,100677.25
2023-02-24T06:42:16.626Z,100662.56
2023-02-24T06:44:44.058Z,100660.88
2023-02-24T06:47:13.901Z,100656.53
2023-02-24T06:49:45.516Z,100647.88
2023-02-24T06:52:18.607Z,100647.03
2023-02-24T06:54:48.654Z,100644.50
2023-02-24T06:57:15.957Z,100650.63
2023-02-24T06:59:43.647Z,100639.34
2023-02-24T07:02:11.267Z,100639.41
2023-02-24T07:04:43.974Z,100629.91
2023-02-24T07:07:14.823Z,100627.31
2023-02-24T07:09:42.973Z,100620.38
2023-02-24T07:12:11.374Z,100614.34
2023-02-24T07:14:38.855Z,100607.41
2023-02-24T07:17:06.346Z,100600.50
2023-02-24T07:19:34.022Z,100596.22
2023-02-24T07:22:03.893Z,100591.03
2023-02-24T07:24:37.206Z,100588.56
2023-02-24T07:27:23.151Z,100581.72
2023-02-24T07:29:53.500Z,100579.19
2023-02-24T07:32:25.620Z,100583.56
2023-02-24T07:34:53.271Z,100582.75
2023-02-24T07:37:21.158Z,100563.72
2023-02-24T07:39:48.516Z,100563.78
2023-02-24T07:42:15.831Z,100573.41
2023-02-24T07:44:46.568Z,100567.44
2023-02-24T07:47:15.891Z,100550.16
2023-02-24T07:49:43.818Z,100547.63
2023-02-24T07:52:11.669Z,100561.56
2023-02-24T07:54:40.255Z,100546.91
2023-02-24T07:57:14.458Z,100546.94
2023-02-24T07:59:48.087Z,100533.06
2023-02-24T08:05:20.070Z,100517.56
2023-02-24T08:07:52.038Z,100519.31
2023-02-24T08:10:27.039Z,100515.88
2023-02-24T08:12:56.533Z,100517.75
2023-02-24T08:15:26.644Z,100509.13
2023-02-24T08:18:00.976Z,100502.25
2023-02-24T08:20:51.213Z,100490.97
2023-02-24T08:23:19.154Z,100482.31
2023-02-24T08:25:46.838Z,100481.44
2023-02-24T08:28:14.180Z,100479.75
2023-02-24T08:30:47.218Z,100477.19
2023-02-24T08:33:21.399Z,100474.63
2023-02-24T08:36:01.107Z,100460.81
2023-02-24T08:38:44.568Z,100466.91
2023-02-24T08:41:18.384Z,100464.34
2023-02-24T08:43:47.354Z,100460.94
2023-02-24T08:46:18.765Z,100475.72
2023-02-24T08:48:51.049Z,100459.31
2023-02-24T08:51:43.909Z,100455.88
2023-02-24T08:54:32.199Z,100439.44
2023-02-24T08:57:08.448Z,100431.72
2023-02-24T08:59:41.040Z,100430.06
2023-02-24T09:02:23.370Z,100413.66
2023-02-24T09:05:05.731Z,100418.91
2023-02-24T09:07:40.832Z,100411.22
2023-02-24T09:10:20.433Z,100401.72
2023-02-24T09:12:51.301Z,100400.06
2023-02-24T09:15:20.621Z,100398.41
2023-02-24T09:17:47.902Z,100401.97
2023-02-24T09:20:39.036Z,100389.88
2023-02-24T09:23:11.005Z,100390.84
2023-02-24T09:25:41.085Z,100390.91
2023-02-24T09:28:18.583Z,100385.72
2023-02-24T09:30:51.652Z,100387.44
2023-02-24T09:33:26.706Z,100387.53
2023-02-24T09:36:10.288Z,100391.00
2023-02-24T09:39:01.740Z,100378.91
2023-02-24T09:41:54.392Z,100383.31
2023-02-24T09:44:33.685Z,100379.09
2023-02-24T09:47:40.502Z,100390.53
2023-02-24T09:50:14.132Z,100384.63
2023-02-24T09:52:41.799Z,100382.16
2023-02-24T09:55:27.642Z,100371.88
2023-02-24T09:58:43.050Z,100361.56
2023-02-24T10:01:33.930Z,100363.59
2023-02-24T10:04:36.391Z,100370.88
2023-02-24T10:07:17.198Z,100358.00
2023-02-24T10:09:52.087Z,100362.50
2023-02-24T10:12:29.397Z,100358.31
2023-02-24T10:15:18.993Z,100350.72
2023-02-24T10:17:52.382Z,100348.34
2023-02-24T10:20:40.273Z,100339.78
2023-02-24T10:23:10.910Z,100347.66
2023-02-24T10:25:53.856Z,100343.22
2023-02-24T10:28:36.587Z,100351.00
2023-02-24T10:31:26.019Z,100349.13
2023-02-24T10:34:06.474Z,100351.69
2023-02-24T10:36:38.029Z,100348.22
2023-02-24T10:39:20.847Z,100344.69
2023-02-24T10:41:57.324Z,100344.69
2023-02-24T10:44:36.470Z,100347.41
2023-02-24T10:47:13.209Z,100342.31
2023-02-24T10:49:58.143Z,100348.59
2023-02-24T10:52:48.062Z,100346.06
2023-02-24T10:55:32.576Z,100338.25
2023-02-24T10:58:06.760Z,100337.41
2023-02-24T11:00:59.789Z,100337.44
2023-02-24T11:03:43.458Z,100333.22
2023-02-24T11:06:40.828Z,100338.59
2023-02-24T11:09:29.530Z,100336.06
2023-02-24T11:12:18.808Z,100323.94
2023-02-24T11:15:11.692Z,100324.88
2023-02-24T11:17:57.333Z,100317.91
2023-02-24T11:20:42.283Z,100313.59
2023-02-24T11:23:39.618Z,100322.38
2023-02-24T11:26:18.465Z,100311.69
2023-02-24T11:29:12.193Z,100311.44
2023-02-24T11:32:02.808Z,100313.06
2023-02-24T11:34:51.754Z,100302.50
2023-02-24T11:37:38.040Z,100304.31
2023-02-24T11:40:15.629Z,100278.19
2023-02-24T11:42:53.570Z,100282.59
2023-02-24T11:45:51.159Z,100273.94
2023-02-24T11:48:32.172Z,100272.25
2023-02-24T11:51:11.611Z,100273.16
2023-02-24T11:54:07.693Z,100257.44
2023-02-24T11:56:59.238Z,100270.59
2023-02-24T11:59:55.966Z,100262.75
2023-02-24T12:02:47.703Z,100263.66
2023-02-24T12:05:19.161Z,100263.69
2023-02-24T12:07:57.712Z,100277.53
2023-02-24T12:10:30.244Z,100277.38
2023-02-24T12:13:11.245Z,100275.50
2023-02-24T12:15:48.779Z,100276.22
2023-02-24T12:18:43.794Z,100278.75
2023-02-24T12:21:25.634Z,100271.72
2023-02-24T12:23:53.773Z,100274.28
2023-02-24T12:26:29.929Z,100258.59
2023-02-24T12:29:24.640Z,100269.97
2023-02-24T12:32:30.448Z,100259.53
2023-02-24T12:35:24.734Z,100258.66
2023-02-24T12:38:29.090Z,100250.88
2023-02-24T12:41:39.901Z,100248.31
2023-02-24T12:44:29.895Z,100244.03
2023-02-24T12:47:24.967Z,100236.25
2023-02-24T12:50:10.679Z,100230.19
2023-02-24T12:52:49.668Z,100231.19
2023-02-24T12:56:01.657Z,100229.56
2023-02-24T12:58:34.880Z,100228.75
2023-02-24T13:01:25.914Z,100229.59
2023-02-24T13:04:15.404Z,100231.31
2023-02-24T13:06:51.822Z,100226.94
2023-02-24T13:09:29.308Z,100227.78
2023-02-24T13:12:21.302Z,100227.78
2023-02-24T13:14:49.663Z,100233.03
2023-02-24T13:17:20.935Z,100240.06
2023-02-24T13:19:49.684Z,100232.19
2023-02-24T13:22:22.334Z,100220.81
2023-02-24T13:25:19.400Z,100227.78
2023-02-24T13:27:56.141Z,100213.78
2023-02-24T13:30:28.965Z,100208.56
2023-02-24T13:33:18.073Z,100198.13
2023-02-24T13:35:52.172Z,100199.91
2023-02-24T13:38:22.865Z,100199.03
2023-02-24T13:40:51.332Z,100210.38
2023-02-24T13:43:31.052Z,100198.06
2023-02-24T13:46:01.787Z,100201.47
2023-02-24T13:48:29.867Z,100192.63
2023-02-24T13:51:00.320Z,100196.03
2023-02-24T13:53:35.207Z,100187.25
2023-02-24T13:56:17.724Z,100184.56
2023-02-24T13:59:01.979Z,100178.41
2023-02-24T14:01:32.999Z,100182.75
2023-02-24T14:04:16.835Z,100204.63
2023-02-24T14:06:52.274Z,100191.41
2023-02-24T14:09:26.984Z,100186.94
2023-02-24T14:12:14.337Z,100183.41
2023-02-24T14:14:44.511Z,100180.75
2023-02-24T14:17:26.541Z,100175.50
2023-02-24T14:19:57.894Z,100187.75
2023-02-24T14:22:29.637Z,100176.47
2023-02-24T14:25:11.369Z,100193.06
2023-02-24T14:27:40.952Z,100205.25
2023-02-24T14:30:35.553Z,100192.88
2023-02-24T14:33:04.938Z,100195.34
2023-02-24T14:35:42.117Z,100191.78
2023-02-24T14:38:32.059Z,100183.91
2023-02-24T14:41:26.009Z,100183.91
2023-02-24T14:44:08.069Z,100183.91
2023-02-24T14:47:46.436Z,100188.31
2023-02-24T14:50:40.904Z,100189.22
2023-02-24T14:53:16.684Z,100187.47
2023-02-24T14:55:50.773Z,100184.88
2023-02-24T14:58:21.095Z,100194.56
2023-02-24T15:00:51.464Z,100194.59
2023-02-24T15:03:30.676Z,100183.28
2023-02-24T15:06:07.576Z,100174.59
2023-02-24T15:08:42.943Z,100185.94
2023-02-24T15:11:16.394Z,100194.66
2023-02-24T15:13:51.278Z,100183.31
2023-02-24T15:16:25.292Z,100185.06
2023-02-24T15:18:56.125Z,100177.22
2023-02-24T15:21:36.347Z,100184.19
2023-02-24T15:24:19.095Z,100205.06
2023-02-24T15:26:59.110Z,100195.41
2023-02-24T15:29:30.917Z,100199.66
2023-02-24T15:32:00.399Z,100203.06
2023-02-24T15:34:35.751Z,100207.38
2023-02-24T15:37:14.809Z,100195.97
2023-02-24T15:39:44.339Z,100195.06
2023-02-24T15:42:38.957Z,100200.25
2023-02-24T15:45:21.970Z,100204.59
2023-02-24T15:47:56.646Z,100201.97
2023-02-24T15:50:24.453Z,100197.63
2023-02-24T15:52:51.898Z,100195.84
2023-02-24T15:55:20.803Z,100180.13
2023-02-24T15:58:03.390Z,100191.44
2023-02-24T16:00:31.758Z,100204.50
2023-02-24T16:02:59.289Z,100218.38
2023-02-24T16:05:26.827Z,100216.47
2023-02-24T16:07:55.059Z,100223.38
2023-02-24T16:10:29.427Z,100218.84
2023-02-24T16:12:59.803Z,100231.75
2023-02-24T16:15:50.414Z,100225.56
2023-02-24T16:18:26.918Z,100215.84
2023-02-24T16:20:57.069Z,100215.72
2023-02-24T16:23:26.194Z,100214.78
2023-02-24T16:26:02.386Z,100212.94
2023-02-24T16:28:31.807Z,100205.91
2023-02-24T16:30:59.455Z,100214.59
2023-02-24T16:33:29.135Z,100205.00
2023-02-24T16:35:56.767Z,100208.44
2023-02-24T16:38:26.992Z,100209.28
2023-02-24T16:40:56.326Z,100213.59
2023-02-24T16:43:25.003Z,100213.59
2023-02-24T16:45:55.509Z,100221.47
2023-02-24T16:48:26.326Z,100214.50
2023-02-24T16:50:53.997Z,100217.06
2023-02-24T16:53:24.128Z,100221.34
2023-02-24T16:55:52.094Z,100224.81
2023-02-24T16:58:19.769Z,100223.91
2023-02-24T17:00:52.417Z,100225.59
2023-02-24T17:03:43.459Z,100239.53
2023-02-24T17:06:13.690Z,100230.03
2023-02-24T17:08:46.134Z,100239.56
2023-02-24T17:11:16.755Z,100232.56
2023-02-24T17:13:44.498Z,100239.50
2023-02-24T17:16:14.710Z,100228.09
2023-02-24T17:18:44.572Z,100231.56
2023-02-24T17:21:16.835Z,100229.75
2023-02-24T17:23:44.754Z,100233.22
2023-02-24T17:26:16.137Z,100227.94
2023-02-24T17:28:44.878Z,100236.63
2023-02-24T17:31:14.289Z,100236.63
2023-02-24T17:33:41.997Z,100239.25
2023-02-24T17:36:09.437Z,100238.44
2023-02-24T17:38:36.703Z,100236.72
2023-02-24T17:41:04.316Z,100242.88
2023-02-24T17:43:34.302Z,100247.28
2023-02-24T17:46:03.220Z,100250.00
2023-02-24T17:48:34.479Z,100253.56
2023-02-24T17:51:01.895Z,100254.47
2023-02-24T17:53:29.746Z,100260.50
2023-02-24T17:56:05.145Z,100253.50
2023-02-24T17:58:35.817Z,100264.72
2023-02-24T18:01:03.625Z,100249.03
2023-02-24T18:03:32.032Z,100259.44
2023-02-24T18:06:12.051Z,100263.78
2023-02-24T18:08:40.875Z,100267.22
2023-02-24T18:11:10.955Z,100253.34
2023-02-24T18:13:40.427Z,100268.13
2023-02-24T18:16:13.192Z,100266.47
2023-02-24T18:18:41.133Z,100269.97
2023-02-24T18:21:08.866Z,100267.44
2023-02-24T18:23:40.127Z,100267.47
2023-02-24T18:26:09.797Z,100271.03
2023-02-24T18:28:37.798Z,100296.22
2023-02-24T18:31:17.559Z,100272.66
2023-02-24T18:33:45.117Z,100270.81
2023-02-24T18:36:14.249Z,100274.25
2023-02-24T18:38:42.066Z,100251.63
2023-02-24T18:41:12.808Z,100262.00
2023-02-24T18:43:40.088Z,100291.56
2023-02-24T18:46:11.042Z,100288.84
2023-02-24T18:48:40.208Z,100273.91
2023-02-24T18:51:10.838Z,100264.09
2023-02-24T18:53:40.706Z,100270.84
2023-02-24T18:56:11.340Z,100267.25
2023-02-24T18:58:40.799Z,100270.72
2023-02-24T19:01:17.558Z,100277.69
2023-02-24T19:03:44.895Z,100275.13
2023-02-24T19:06:12.761Z,100266.53
2023-02-24T19:08:41.952Z,100279.69
2023-02-24T19:11:18.191Z,100277.19
2023-02-24T19:13:47.836Z,100276.41
2023-02-24T19:16:16.575Z,100263.47
2023-02-24T19:18:44.374Z,100275.72
2023-02-24T19:21:11.895Z,100294.91
2023-02-24T19:23:41.136Z,100308.84
2023-02-24T19:26:21.959Z,100294.69
2023-02-24T19:28:51.338Z,100302.25
2023-02-24T19:31:24.535Z,100305.50
2023-02-24T19:33:56.772Z,100309.63
2023-02-24T19:36:24.731Z,100306.88
2023-02-24T19:38:52.612Z,100297.22
2023-02-24T19:41:20.362Z,100296.25
2023-02-24T19:43:48.068Z,100304.88
2023-02-24T19:46:16.604Z,100301.25
2023-02-24T19:48:44.428Z,100292.53
2023-02-24T19:51:16.832Z,100298.56
2023-02-24T19:53:44.381Z,100286.38
2023-02-24T19:56:11.752Z,100300.28
2023-02-24T19:58:40.623Z,100297.66
2023-02-24T20:01:11.875Z,100309.88
2023-02-24T20:03:45.349Z,100316.94
2023-02-24T20:06:26.139Z,100304.00
2023-02-24T20:08:54.156Z,100293.66
2023-02-24T20:11:23.231Z,100296.28
2023-02-24T20:13:53.310Z,100310.28
2023-02-24T20:16:26.616Z,100303.38
2023-02-24T20:18:55.434Z,100313.00
2023-02-24T20:21:23.137Z,100306.09
2023-02-24T20:23:51.295Z,100294.88
2023-02-24T20:26:19.429Z,100303.56
2023-02-24T20:28:48.264Z,100308.78
2023-02-24T20:31:19.905Z,100309.66
2023-02-24T20:33:49.659Z,100310.56
2023-02-24T20:36:20.642Z,100311.47
2023-02-24T20:38:49.271Z,100299.31
2023-02-24T20:41:17.701Z,100296.69
2023-02-24T20:43:45.223Z,100317.59
2023-02-24T20:46:16.270Z,100320.25
2023-02-24T20:48:45.079Z,100319.41
2023-02-24T20:51:12.610Z,100322.94
2023-02-24T20:53:56.739Z,100321.22
2023-02-24T20:56:33.064Z,100326.53
2023-02-24T20:59:05.559Z,100323.91
2023-02-24T21:01:34.061Z,100321.16
2023-02-24T21:04:04.377Z,100314.13
2023-02-24T21:06:32.446Z,100327.88
2023-02-24T21:09:00.216Z,100319.91
2023-02-24T21:11:30.132Z,100313.72
2023-02-24T21:13:58.613Z,100313.69
2023-02-24T21:16:27.027Z,100326.75
2023-02-24T21:19:03.703Z,100331.22
2023-02-24T21:21:31.002Z,100343.50
2023-02-24T21:24:05.364Z,100339.28
2023-02-24T21:26:32.788Z,100331.47
2023-02-24T21:29:02.278Z,100334.03
2023-02-24T21:31:30.178Z,100336.59
2023-02-24T21:33:57.591Z,100337.38
2023-02-24T21:36:30.842Z,100339.94
2023-02-24T21:38:59.452Z,100339.94
2023-02-24T21:41:26.905Z,100339.03
2023-02-24T21:43:55.540Z,100339.94
2023-02-24T21:46:25.866Z,100339.03
2023-02-24T21:48:58.317Z,100348.69
2023-02-24T21:51:26.991Z,100348.72
2023-02-24T21:53:59.328Z,100356.59
2023-02-24T21:56:29.231Z,100357.50
2023-02-24T21:59:03.424Z,100349.72
2023-02-24T22:01:33.934Z,100348.88
2023-02-24T22:04:03.873Z,100347.16
2023-02-24T22:06:33.960Z,100352.41
2023-02-24T22:09:03.315Z,100354.16
2023-02-24T22:11:32.477Z,100353.28
2023-02-24T22:13:59.755Z,100350.66
2023-02-24T22:16:27.983Z,100356.72
2023-02-24T22:18:56.478Z,100354.88
2023-02-24T22:21:30.583Z,100357.31
2023-02-24T22:24:00.806Z,100359.81
2023-02-24T22:26:30.020Z,100360.59
2023-02-24T22:28:59.067Z,100359.63
2023-02-24T22:31:32.300Z,100365.63
2023-02-24T22:34:00.914Z,100359.56
2023-02-24T22:36:31.724Z,100368.22
2023-02-24T22:39:00.233Z,100368.28
2023-02-24T22:41:31.365Z,100367.50
2023-02-24T22:43:59.993Z,100364.09
2023-02-24T22:46:30.481Z,100368.50
2023-02-24T22:48:58.009Z,100387.69
2023-02-24T22:51:25.862Z,100366.00
2023-02-24T22:53:54.999Z,100365.16
2023-02-24T22:56:28.641Z,100380.84
2023-02-24T22:58:56.750Z,100386.13
2023-02-24T23:01:33.456Z,100388.75
2023-02-24T23:04:05.735Z,100395.72
2023-02-24T23:06:43.641Z,100396.66
2023-02-24T23:09:13.321Z,100401.03
2023-02-24T23:11:41.767Z,100397.56
2023-02-24T23:14:14.160Z,100401.06
2023-02-24T23:16:44.413Z,100410.72
2023-02-24T23:19:16.352Z,100421.22
2023-02-24T23:21:50.991Z,100424.72
2023-02-24T23:24:19.904Z,100431.44
2023-02-24T23:26:54.484Z,100435.63
2023-02-24T23:29:24.011Z,100425.75
2023-02-24T23:31:52.956Z,100429.09
2023-02-24T23:34:20.696Z,100434.91
2023-02-24T23:36:50.657Z,100449.47
2023-02-24T23:39:23.210Z,100448.50
2023-02-24T23:41:57.494Z,100443.00
2023-02-24T23:44:25.352Z,100435.88
2023-02-24T23:46:52.591Z,100438.38
2023-02-24T23:49:19.857Z,100434.88
2023-02-24T23:51:48.980Z,100433.13
2023-02-24T23:54:18.161Z,100438.31
2023-02-24T23:56:46.682Z,100453.09
2023-02-24T23:59:14.823Z,100452.28
